NCAR-RAP Real-Time Weather Data

Output produced by METARs form (18 August 2018  01:02 UTC)
found at http://weather.rap.ucar.edu/surface/
 
RJAA 180030Z 03010KT 010V070 9999 FEW015 BKN/// 23/13 Q1013 NOSIG
RJAA 180000Z 03008KT 350V060 9999 FEW015 BKN/// 23/14 Q1013 NOSIG RMK 1CU015 A2993
RJAA 172330Z 02009KT 350V060 9999 FEW020 BKN/// 22/14 Q1013 NOSIG
RJAA 172300Z 03006KT 360V080 9999 FEW030 BKN/// 21/14 Q1013 NOSIG RMK 1CU030 A2994
RJAA 172230Z 02005KT 320V060 9999 FEW030 BKN/// 21/15 Q1013 NOSIG
RJAA 172200Z 32003KT 280V350 9999 FEW030 BKN/// 20/15 Q1013 NOSIG RMK 1CU030 A2993
RJAA 172130Z VRB02KT 9999 FEW030 BKN/// 19/15 Q1013 BECMG 36005KT
RJAA 172100Z 32004KT 9999 FEW030 BKN/// 18/14 Q1013 NOSIG RMK 1CU030 A2992
RJAA 172030Z 33004KT 9999 FEW030 BKN/// 17/14 Q1012 NOSIG
RJAA 172000Z 32004KT 290V360 9999 FEW030 BKN/// 17/14 Q1012 NOSIG RMK 1CU030 A2990
RJAA 171930Z 01007KT 9999 FEW030 BKN/// 18/14 Q1012 NOSIG
RJAA 171900Z 01006KT 9999 FEW030 BKN/// 18/14 Q1012 NOSIG RMK 1CU030 A2989
RJAA 171830Z 02005KT 9999 FEW030 18/14 Q1012 NOSIG RMK 1CU030 A2989
RJAA 171800Z 02006KT 9999 FEW030 18/14 Q1012 NOSIG RMK 1CU030 A2989
RJAA 171730Z 02006KT 9999 FEW030 18/14 Q1011 NOSIG RMK 1CU030 A2988
RJAA 171700Z 01006KT 9999 FEW030 19/14 Q1011 NOSIG RMK 1CU030 A2988
RJAA 171630Z 02005KT 9999 FEW030 19/14 Q1012 NOSIG RMK 1CU030 A2988
RJAA 171600Z 03004KT 9999 FEW030 19/14 Q1011 NOSIG RMK 1CU030 A2988
RJAA 171530Z 02005KT 9999 FEW030 19/14 Q1011 NOSIG RMK 1CU030 A2988
RJAA 171500Z 02005KT 9999 FEW030 19/14 Q1011 NOSIG RMK 1CU030 A2988
RJAA 171430Z 02008KT 9999 FEW030 20/13 Q1012 NOSIG RMK 1CU030 A2988
RJAA 171400Z 02007KT 9999 FEW030 20/13 Q1012 NOSIG RMK 1CU030 A2988
RJAA 171330Z 36007KT 9999 FEW030 21/13 Q1011 NOSIG RMK 1CU030 A2988
RJAA 171300Z 01009KT 9999 FEW030 22/13 Q1011 NOSIG RMK 1CU030 A2987
RJAA 171230Z 02008KT 9999 FEW030 BKN070 22/13 Q1011 NOSIG RMK 1CU030 6AC070 A2987
RJAA 171200Z 02010KT 9999 FEW030 BKN070 22/13 Q1011 NOSIG RMK 1CU030 5AC070 A2986
RJAA 171130Z 03008KT 9999 FEW030 22/14 Q1010 NOSIG RMK 1CU030 A2984
RJAA 171100Z 04009KT 9999 FEW030 23/15 Q1010 NOSIG RMK 1CU030 A2983
RJAA 171030Z 06006KT 360V100 9999 FEW030 23/14 Q1009 BECMG 03005KT
RJAA 171000Z 04009KT 9999 FEW030 24/11 Q1009 NOSIG RMK 1CU030 A2980
RJAA 170930Z 02011KT 350V050 9999 FEW030 26/11 Q1008 NOSIG RMK 1CU030 A2979
RJAA 170900Z 03011KT 9999 FEW030 26/10 Q1008 NOSIG RMK 1CU030 A2978
RJAA 170830Z 36014KT 9999 FEW030 27/10 Q1008 NOSIG RMK 1CU030 A2977
RJAA 170800Z 36013KT 9999 FEW030 27/12 Q1007 NOSIG RMK 1CU030 A2976
RJAA 170730Z 01015KT 9999 FEW030 SCT060 BKN080 28/13 Q1007 NOSIG RMK 1CU030 3SC060 5AC080 A2974
RJAA 170725Z 01015KT 9999 FEW030 SCT060 BKN080 28/14 Q1007 RMK 1CU030 3SC060 5AC080 A2974
RJAA 170700Z 33005KT 280V360 9999 FEW030 SCT060 28/13 Q1007 BECMG 03013KT RMK 1CU030 4SC060 A2974
RJAA 170630Z 32005KT 270V010 9999 FEW030 SCT060 27/13 Q1007 NOSIG RMK 1CU030 3SC060 A2974
RJAA 170600Z VRB04KT 9999 FEW030 SCT060 29/14 Q1006 BECMG 02006KT
RJAA 170530Z 33006KT 250V040 9999 FEW030 SCT060 29/15 Q1007 NOSIG RMK 1CU030 3SC060 A2974
RJAA 170500Z 33006KT 260V040 9999 FEW030 SCT060 28/15 Q1007 NOSIG RMK 1CU030 3SC060 A2974
RJAA 170430Z 33006KT 290V010 9999 FEW030 27/14 Q1007 NOSIG RMK 1CU030 A2974
RJAA 170400Z VRB05KT 9999 FEW030 SCT060 28/16 Q1007 BECMG 01006KT
RJAA 170330Z 34005KT 280V050 9999 FEW030 SCT060 27/14 Q1007 NOSIG RMK 1CU030 3SC060 A2975
RJAA 170300Z VRB03KT 9999 FEW030 SCT060 27/15 Q1007 BECMG 01005KT
RJAA 170230Z 31006KT 270V340 9999 FEW030 SCT060 28/16 Q1007 NOSIG RMK 1CU030 3SC060 A2975
RJAA 170200Z 34010KT 9999 FEW030 28/15 Q1007 NOSIG RMK 1CU030 A2975
RJAA 170130Z 32008KT 9999 FEW030 27/15 Q1007 NOSIG RMK 1CU030 A2976
RJAA 170100Z 31007KT 270V350 9999 FEW030 27/15 Q1007 NOSIG RMK 1CU030 A2976
RJAA 170030Z 31007KT 280V340 9999 FEW030 27/15 Q1007 NOSIG RMK 1CU030 A2975
RJAA 170000Z 32010KT 260V350 9999 FEW030 25/14 Q1007 NOSIG RMK 1CU030 A2975
RJAA 162330Z 36007KT 320V040 9999 FEW030 26/17 Q1007 NOSIG RMK 1CU030 A2974
RJAA 162300Z 33004KT 280V020 9999 FEW025 SCT080 25/17 Q1007 NOSIG RMK 1CU025 3AC080 A2974
RJAA 162230Z 35007KT 9999 FEW020 SCT080 25/16 Q1007 NOSIG RMK 1CU020 3AC080 A2974
RJAA 162200Z 04004KT 360V060 9999 FEW015 SCT040 24/17 Q1006 NOSIG RMK 1CU015 3SC040 A2973
RJAA 162130Z 03006KT 9999 FEW015 BKN070 24/17 Q1006 NOSIG RMK 1CU015 5AC070 A2972
RJAA 162100Z 01008KT 9999 FEW013 BKN035 24/17 Q1005 NOSIG RMK 1CU013 6SC035 A2970
RJAA 162030Z VRB02KT 9999 FEW015 SCT060 BKN080 24/22 Q1005 NOSIG RMK 1CU015 3SC060 6AC080 A2968
RJAA 162000Z 33003KT 290V360 9999 FEW020 BKN060 24/22 Q1005 NOSIG RMK 1CU020 6SC060 A2968
RJAA 161930Z 33004KT 9999 FEW020 BKN060 24/22 Q1004 NOSIG RMK 1CU020 7SC060 A2967
RJAA 161900Z 32004KT 9999 FEW020 BKN070 24/22 Q1004 NOSIG RMK 1CU020 7AC070 A2966
RJAA 161830Z VRB02KT 9999 FEW020 BKN060 24/22 Q1004 NOSIG RMK 1CU020 7AC060 A2966
RJAA 161800Z VRB02KT 9999 FEW025 FEW035CB BKN060 24/23 Q1003 NOSIG RMK 1CU025 1CB035 7AC060 A2964 LIGHTNING 40KM SE MOV E
RJAA 161730Z 34006KT 9999 FEW025 FEW035CB BKN060 24/22 Q1003 NOSIG RMK 1CU025 1CB035 7AC060 A2964 LIGHTNING 50KM SE MOV SE
RJAA 161700Z 32003KT 280V350 9999 -SHRA FEW030 FEW035CB BKN060 24/23 Q1003 NOSIG RMK 1CU030 1CB035 6AC060 A2964 LIGHTNING 50KM S MOV SE
RJAA 161630Z VRB02KT 9999 -SHRA FEW030 FEW035CB BKN060 24/23 Q1003 NOSIG RMK 2CU030 1CB035 5AC060 A2964 LIGHTNING 40KM S MOV E
RJAA 161622Z VRB02KT 9999 -SHRA FEW030 FEW035CB BKN060 24/23 Q1003 RMK 2CU030 1CB035 5AC060 A2964 LIGHTNING 40KM S MOV E
RJAA 161600Z 23005KT 190V260 9999 -TSRA FEW030 FEW035CB BKN060 24/23 Q1004 BECMG 28005KT RMK 2CU030 1CB035 5AC060 A2965 FBL TS 20KM SW MOV E
RJAA 161530Z 23004KT 200V260 9999 -SHRA FEW020 BKN050 24/23 Q1003 NOSIG RMK 2CU020 6SC050 A2964
RJAA 161500Z 29006KT 260V330 9999 -SHRA FEW015 BKN030 25/23 Q1004 NOSIG RMK 1CU015 7CU030 A2966
RJAA 161430Z 25010KT 220V290 6000 -SHRA FEW013 BKN015 27/25 Q1004 NOSIG RMK 1CU013 7CU015 A2966
RJAA 161400Z 23011KT 9999 -SHRA SCT015 BKN020 27/25 Q1004 BECMG 27010KT RMK 3CU015 6CU020 A2966
RJAA 161330Z 23011KT 9999 FEW015 SCT020 BKN030 27/25 Q1004 BECMG 27008KT
RJAA 161300Z 23012KT 180V250 9999 FEW015 SCT020 BKN035 27/24 Q1004 BECMG 27008KT RMK 1CU015 3CU020 7CU035 A2967
RJAA 161230Z 23011KT 9999 FEW020 SCT035 BKN/// 27/24 Q1005 BECMG 27008KT
RJAA 161200Z 22008KT 190V260 9999 FEW025 SCT030 BKN/// 27/24 Q1004 BECMG 27008KT RMK 1CU025 3CU030 A2967
RJAA 161130Z 23008KT 190V270 9999 -SHRA FEW025 BKN150 27/24 Q1004 BECMG 27008KT
RJAA 161100Z 22009KT 180V250 9999 -SHRA FEW020 BKN150 28/24 Q1004 NOSIG RMK 1CU020 7AC150 A2967
RJAA 161030Z 22014KT 9999 -SHRA FEW020 SCT120 BKN160 28/24 Q1003 TEMPO 22015G25KT
RJAA 161000Z 22014G27KT 9999 FEW020 SCT160 BKN180 28/24 Q1003 NOSIG RMK 1CU020 4AC160 7AC180 A2964
RJAA 160933Z 23015G25KT 9999 FEW020 SCT180 BKN/// 28/24 Q1004 RMK 1CU020 3AC180 A2966
RJAA 160930Z 23015KT 9999 FEW020 SCT180 BKN/// 28/24 Q1004 TEMPO 22015G25KT RMK 1CU020 3AC180 A2966
RJAA 160923Z 23015G27KT 9999 FEW020 SCT180 BKN/// 28/24 Q1004 RMK 1CU020 3AC180 A2966
RJAA 160900Z 23013KT 180V270 9999 FEW020 BKN/// 29/24 Q1004 WS R16L TEMPO 22015G25KT
RJAA 160843Z 22015G25KT 200V260 9999 FEW020 BKN/// 29/23 Q1004 RMK 1CU020 A2966
RJAA 160830Z 22014KT 190V250 9999 FEW020 BKN/// 29/23 Q1004 TEMPO 22015G25KT
RJAA 160801Z 22018G30KT 190V250 9999 FEW020 BKN/// 29/23 Q1003 RMK 1CU020 A2964
RJAA 160800Z 22017KT 190V250 9999 FEW020 BKN/// 29/23 Q1003 TEMPO 22017G27KT RMK 1CU020 A2964
RJAA 160746Z 22015G25KT 9999 FEW020 BKN/// 29/23 Q1003 WS R16R WS R16L RMK 1CU020 A2964
RJAA 160730Z 22015KT 190V250 9999 FEW020 BKN/// 29/23 Q1003 WS R16R WS R16L TEMPO 22015G25KT
RJAA 160700Z 22015G32KT 9999 FEW020 BKN/// 30/23 Q1003 WS R16R WS R16L NOSIG RMK 1CU020 A2964
RJAA 160630Z 22017G30KT 9999 FEW020 BKN/// 30/23 Q1003 WS R16R WS R16L NOSIG
RJAA 160600Z 22016G29KT 190V260 9999 FEW020 BKN/// 30/23 Q1003 WS R16L NOSIG
RJAA 160530Z 23018G32KT 190V260 9999 FEW020 BKN/// 31/23 Q1004 WS R16R WS R16L NOSIG
RJAA 160500Z 22020G35KT 9999 FEW020 BKN/// 31/23 Q1004 WS R16R WS R16L NOSIG
RJAA 160430Z 22022G33KT 9999 FEW020 SCT160 BKN/// 31/22 Q1004 WS R16R WS R16L NOSIG
RJAA 160400Z 22023G35KT 180V250 9999 VCBLDU FEW020 SCT160 BKN/// 32/22 Q1004 WS R16R WS R16L NOSIG RMK 1CU020 4AC160 A2967 MOD TURB OBS AT 0353Z ON DEP COURSE RWY16R 500FT AND BLW IN CMB A320 JJP305 BLDU S-SW
RJAA 160330Z 21022G34KT 9999 FEW020 BKN/// 32/21 Q1005 WS R16R NOSIG
RJAA 160300Z 22021G34KT 190V260 9999 FEW020 BKN/// 32/22 Q1005 WS R16R NOSIG
RJAA 160230Z 22018G32KT 9999 FEW020 BKN/// 32/22 Q1006 WS R16R WS R16L NOSIG
RJAA 160217Z 23021G34KT 190V260 9999 VCBLDU FEW020 BKN/// 32/21 Q1006 WS R16R RMK 1CU020 A2971 BLDU S-SW
RJAA 160200Z 22019G32KT 180V250 9999 FEW020 BKN/// 32/21 Q1006 WS R16L NOSIG RMK 1CU020 A2973
RJAA 160130Z 21018G30KT 9999 FEW020 BKN/// 32/22 Q1006 WS R16R WS R16L NOSIG
RJAA 160100Z 22017G30KT 180V250 9999 FEW020 BKN/// 31/21 Q1007 WS R16L NOSIG RMK 1CU020 A2974
RJAA 160030Z 22018G29KT 190V260 9999 FEW020 BKN/// 31/22 Q1007 WS R16R WS R16L NOSIG RMK 1CU020 A2974
RJAA 160000Z 22017G28KT 190V260 9999 FEW030 BKN/// 31/21 Q1007 NOSIG
RJAA 152330Z 22018G29KT 190V250 9999 FEW030 BKN/// 30/22 Q1007 NOSIG
RJAA 152314Z 21015G26KT 180V260 9999 FEW030 BKN/// 30/23 Q1007 RMK 1CU030 A2975
RJAA 152300Z 21015KT 170V240 9999 FEW030 SCT/// 29/23 Q1007 TEMPO 21018G30KT RMK 1CU030 A2975
RJAA 152250Z 21016G26KT 170V240 9999 FEW030 SCT/// 29/23 Q1007 RMK 1CU030 A2975
RJAA 152230Z 20015KT 170V240 9999 FEW030 SCT/// 29/23 Q1007 TEMPO FM2300 20016G27KT RMK 1CU030 A2976
RJAA 152200Z 20012KT 170V230 9999 FEW015 SCT/// 28/23 Q1008 TEMPO FM2300 20016G27KT RMK 1CU015 A2977
RJAA 152130Z 20012KT 160V230 9999 FEW015 27/23 Q1008 NOSIG RMK 1CU015 A2977
RJAA 152100Z 19010KT 9999 FEW015 SCT/// 27/23 Q1008 NOSIG RMK 1CU015 A2978
RJAA 152030Z 20010KT 9999 FEW015 BKN/// 26/23 Q1008 NOSIG
RJAA 152000Z 20009KT 9999 FEW015 SCT/// 26/23 Q1008 NOSIG RMK 1CU015 A2979
RJAA 151930Z 19008KT 160V220 9999 FEW015 SCT140 BKN/// 26/23 Q1009 NOSIG
RJAA 151900Z 19010KT 160V220 9999 FEW015 BKN140 BKN/// 26/24 Q1009 NOSIG RMK 2CU015 5AC140 A2979
RJAA 151830Z 20009KT 170V230 9999 FEW015 BKN020 BKN/// 26/24 Q1009 NOSIG
RJAA 151800Z 20009KT 9999 FEW015 SCT/// 26/24 Q1009 NOSIG RMK 1CU015 A2980
RJAA 151730Z 20008KT 9999 FEW015 SCT/// 26/24 Q1009 NOSIG
RJAA 151700Z 20008KT 9999 FEW030 BKN/// 26/24 Q1009 NOSIG
RJAA 151630Z 20010KT 9999 FEW030 BKN/// 26/24 Q1009 NOSIG RMK 1CU030 A2982
RJAA 151600Z 20010KT 9999 FEW030 SCT150 27/24 Q1009 NOSIG RMK 1CU030 3AC150 A2982
RJAA 151530Z 20010KT 9999 FEW030 SCT/// 27/24 Q1010 NOSIG
RJAA 151500Z 20009KT 160V230 9999 FEW025 BKN/// 26/24 Q1010 NOSIG RMK 1CU025 A2984
RJAA 151430Z 19009KT 9999 FEW025 BKN/// 26/24 Q1011 NOSIG
RJAA 151400Z 19009KT 160V230 9999 FEW025 BKN/// 27/24 Q1011 NOSIG RMK 1CU025 A2987
RJAA 151330Z 20009KT 160V230 9999 FEW025 BKN/// 27/24 Q1011 NOSIG